地図

経路データ

SID SEASON NUMBER BASIN SUBBASIN NAME ISO_TIME NATURE LAT LON WMO_WIND WMO_PRES WMO_AGENCY TRACK_TYPE DIST2LAND LANDFALL IFLAG USA_AGENCY USA_ATCF_ID USA_LAT USA_LON USA_RECORD USA_STATUS USA_WIND USA_PRES USA_SSHS USA_R34_NE USA_R34_SE USA_R34_SW USA_R34_NW USA_R50_NE USA_R50_SE USA_R50_SW USA_R50_NW USA_R64_NE USA_R64_SE USA_R64_SW USA_R64_NW USA_POCI USA_ROCI USA_RMW USA_EYE TOKYO_LAT TOKYO_LON TOKYO_GRADE TOKYO_WIND TOKYO_PRES TOKYO_R50_DIR TOKYO_R50_LONG TOKYO_R50_SHORT TOKYO_R30_DIR TOKYO_R30_LONG TOKYO_R30_SHORT TOKYO_LAND CMA_LAT CMA_LON CMA_CAT CMA_WIND CMA_PRES HKO_LAT HKO_LON HKO_CAT HKO_WIND HKO_PRES NEWDELHI_LAT NEWDELHI_LON NEWDELHI_GRADE NEWDELHI_WIND NEWDELHI_PRES NEWDELHI_CI NEWDELHI_DP NEWDELHI_POCI REUNION_LAT REUNION_LON REUNION_TYPE REUNION_WIND REUNION_PRES REUNION_TNUM REUNION_CI REUNION_RMW REUNION_R34_NE REUNION_R34_SE REUNION_R34_SW REUNION_R34_NW REUNION_R50_NE REUNION_R50_SE REUNION_R50_SW REUNION_R50_NW REUNION_R64_NE REUNION_R64_SE REUNION_R64_SW REUNION_R64_NW BOM_LAT BOM_LON BOM_TYPE BOM_WIND BOM_PRES BOM_TNUM BOM_CI BOM_RMW BOM_R34_NE BOM_R34_SE BOM_R34_SW BOM_R34_NW BOM_R50_NE BOM_R50_SE BOM_R50_SW BOM_R50_NW BOM_R64_NE BOM_R64_SE BOM_R64_SW BOM_R64_NW BOM_ROCI BOM_POCI BOM_EYE BOM_POS_METHOD BOM_PRES_METHOD NADI_LAT NADI_LON NADI_CAT NADI_WIND NADI_PRES WELLINGTON_LAT WELLINGTON_LON WELLINGTON_WIND WELLINGTON_PRES DS824_LAT DS824_LON DS824_STAGE DS824_WIND DS824_PRES TD9636_LAT TD9636_LON TD9636_STAGE TD9636_WIND TD9636_PRES TD9635_LAT TD9635_LON TD9635_WIND TD9635_PRES TD9635_ROCI NEUMANN_LAT NEUMANN_LON NEUMANN_CLASS NEUMANN_WIND NEUMANN_PRES MLC_LAT MLC_LON MLC_CLASS MLC_WIND MLC_PRES USA_GUST BOM_GUST BOM_GUST_PER REUNION_GUST REUNION_GUST_PER USA_SEAHGT USA_SEARAD_NE USA_SEARAD_SE USA_SEARAD_SW USA_SEARAD_NW STORM_SPEED STORM_DIR
1879043S13058 1879 3 SI MM NOT_NAMED 1879-02-12 00:00:00 TS -12.9000 57.7000 main 805 716 _________O____ -1 -12.9000 57.7000 TC 17 177
1879043S13058 1879 3 SI MM NOT_NAMED 1879-02-12 03:00:00 TS -13.7550 57.7424 main 705 615 _________P____ -1 -13.7550 57.7424 TC 17 177
1879043S13058 1879 3 SI MM NOT_NAMED 1879-02-12 06:00:00 TS -14.6000 57.8000 main 615 526 _________O____ -1 -14.6000 57.8000 TC 17 175
1879043S13058 1879 3 SI MM NOT_NAMED 1879-02-12 09:00:00 TS -15.4350 57.8851 main 526 426 _________P____ -1 -15.4350 57.8851 TC 17 174
1879043S13058 1879 3 SI MM NOT_NAMED 1879-02-12 12:00:00 TS -16.3000 58.0000 main 426 327 _________O____ -1 -16.3000 58.0000 TC 18 172
1879043S13058 1879 3 SI MM NOT_NAMED 1879-02-12 15:00:00 TS -17.2350 58.1351 main 327 232 _________P____ -1 -17.2350 58.1351 TC 19 171
1879043S13058 1879 3 SI MM NOT_NAMED 1879-02-12 18:00:00 TS -18.2000 58.3000 main 221 139 _________O____ -1 -18.2000 58.3000 TC 20 170
1879043S13058 1879 3 SI MM NOT_NAMED 1879-02-12 21:00:00 TS -19.1800 58.4925 main 130 94 _________P____ -1 -19.1800 58.4925 TC 19 169
1879043S13058 1879 3 SI MM NOT_NAMED 1879-02-13 00:00:00 TS -20.1000 58.7000 main 96 93 _________O____ -1 -20.1000 58.7000 TC 18 168
1879043S13058 1879 3 SI MM NOT_NAMED 1879-02-13 03:00:00 TS -20.8874 58.8929 main 132 132 _________P____ -1 -20.8874 58.8929 TC 16 166
1879043S13058 1879 3 SI MM NOT_NAMED 1879-02-13 06:00:00 TS -21.6000 59.1000 main 190 190 _________O____ -1 -21.6000 59.1000 TC 15 164
1879043S13058 1879 3 SI MM NOT_NAMED 1879-02-13 09:00:00 TS -22.3225 59.3426 main 260 260 _________P____ -1 -22.3225 59.3426 TC 15 162
1879043S13058 1879 3 SI MM NOT_NAMED 1879-02-13 12:00:00 TS -23.0000 59.6000 main 341 341 _________O____ -1 -23.0000 59.6000 TC 14 161
1879043S13058 1879 3 SI MM NOT_NAMED 1879-02-13 15:00:00 TS -23.6224 59.8355 main 408 408 _________P____ -1 -23.6224 59.8355 TC 13 159
1879043S13058 1879 3 SI MM NOT_NAMED 1879-02-13 18:00:00 TS -24.2000 60.1000 main 481 481 _________O____ -1 -24.2000 60.1000 TC 12 155
1879043S13058 1879 3 SI MM NOT_NAMED 1879-02-13 21:00:00 TS -24.7424 60.4205 main 545 545 _________P____ -1 -24.7424 60.4205 TC 13 150
1879043S13058 1879 3 SI MM NOT_NAMED 1879-02-14 00:00:00 TS -25.3000 60.8000 main 623 623 _________O____ -1 -25.3000 60.8000 TC 14 149
1879043S13058 1879 3 SI MM NOT_NAMED 1879-02-14 03:00:00 TS -25.9348 61.2204 main 701 701 _________P____ -1 -25.9348 61.2204 TC 15 148
1879043S13058 1879 3 SI MM NOT_NAMED 1879-02-14 06:00:00 TS -26.6000 61.7000 main 794 794 _________O____ -1 -26.6000 61.7000 TC 16 146
1879043S13058 1879 3 SI MM NOT_NAMED 1879-02-14 09:00:00 TS -27.2724 62.2350 main 886 886 _________P____ -1 -27.2724 62.2350 TC 16 143
1879043S13058 1879 3 SI MM NOT_NAMED 1879-02-14 12:00:00 TS -27.9000 62.8000 main 974 974 _________O____ -1 -27.9000 62.8000 TC 15 140
1879043S13058 1879 3 SI MM NOT_NAMED 1879-02-14 15:00:00 TS -28.4296 63.3359 main 1048 1048 _________P____ -1 -28.4296 63.3359 TC 14 136
1879043S13058 1879 3 SI MM NOT_NAMED 1879-02-14 18:00:00 TS -28.9000 63.9000 main 1127 1127 _________O____ -1 -28.9000 63.9000 TC 14 132
1879043S13058 1879 3 SI MM NOT_NAMED 1879-02-14 21:00:00 TS -29.3533 64.5286 main 1206 1206 _________P____ -1 -29.3533 64.5286 TC 14 128
1879043S13058 1879 3 SI MM NOT_NAMED 1879-02-15 00:00:00 TS -29.8000 65.2000 main 1283 _________O____ -1 -29.8000 65.2000 TC 15 127

IBTrACS Databaseについて

本データベースは、米国NOAAが公開する1842年以降の世界の熱帯低気圧のベストトラックデータアーカイブInternational Best Track Archive for Climate Stewardship (IBTrACS)を、ウェブで閲覧しやすい形式に変換したものです。

最終更新日:2021-12-01